| time (UTC) | temp C | wind direction | speed KPH | gust KPH | rain 1hr cm | rain 24hr cm | rain mn cm | humidity % | barometer mb |
| 20260504033630 | 8 | 284 | 0.0 | 0.0 | 0.00 | 0.00 | 0.00 | 66 | 1016.3 |
| 20260504033127 | 8 | 284 | 0.0 | 0.0 | 0.00 | 0.00 | 0.00 | 64 | 1016.5 |
| 20260504032624 | 8 | 284 | 0.0 | 0.0 | 0.00 | 0.00 | 0.00 | 63 | 1016.4 |
| 20260504032120 | 8 | 284 | 0.0 | 0.0 | 0.00 | 0.00 | 0.00 | 64 | 1016.3 |
| 20260504031618 | 8 | 284 | 0.0 | 0.0 | 0.00 | 0.00 | 0.00 | 66 | 1016.1 |
| 20260504031114 | 8 | 284 | 0.0 | 0.0 | 0.00 | 0.00 | 0.00 | 66 | 1016.3 |
| 20260504030611 | 8 | 284 | 0.0 | 0.0 | 0.00 | 0.00 | 0.00 | 64 | 1016.4 |
| 20260504030108 | 8 | 284 | 0.0 | 0.0 | 0.00 | 0.00 | 0.00 | 65 | 1016.6 |
| 20260504025604 | 8 | 284 | 0.0 | 0.0 | 0.00 | 0.00 | 0.00 | 63 | 1016.4 |
| 20260504025101 | 9 | 284 | 0.0 | 0.0 | 0.00 | 0.00 | 0.00 | 62 | 1016.4 |
| 20260504024558 | 8 | 284 | 0.0 | 0.0 | 0.00 | 0.00 | 0.00 | 61 | 1016.5 |
| 20260504024055 | 8 | 284 | 0.0 | 0.0 | 0.00 | 0.00 | 0.00 | 61 | 1016.4 |
| 20260504023551 | 9 | 284 | 0.0 | 0.0 | 0.00 | 0.00 | 0.00 | 61 | 1016.4 |
| 20260504023047 | 8 | 284 | 0.0 | 1.6 | 0.00 | 0.00 | 0.00 | 61 | 1016.4 |
| 20260504022543 | 9 | 284 | 0.0 | 0.0 | 0.00 | 0.00 | 0.00 | 60 | 1016.6 |
| 20260504022040 | 9 | 284 | 0.0 | 0.0 | 0.00 | 0.00 | 0.00 | 57 | 1016.5 |
| 20260504021538 | 10 | 284 | 0.0 | 1.6 | 0.00 | 0.00 | 0.00 | 56 | 1016.3 |
| 20260504021034 | 10 | 284 | 0.0 | 0.0 | 0.00 | 0.00 | 0.00 | 56 | 1016.6 |
| 20260504020531 | 10 | 284 | 1.6 | 1.6 | 0.00 | 0.00 | 0.00 | 56 | 1016.4 |
| 20260504020028 | 10 | 284 | 0.0 | 0.0 | 0.00 | 0.00 | 0.00 | 56 | 1016.3 |
| 20260504015524 | 10 | 284 | 0.0 | 0.0 | 0.00 | 0.00 | 0.00 | 54 | 1016.4 |
| 20260504015020 | 10 | 284 | 0.0 | 0.0 | 0.00 | 0.00 | 0.00 | 53 | 1016.6 |
| 20260504014516 | 10 | 284 | 0.0 | 0.0 | 0.00 | 0.00 | 0.00 | 52 | 1016.5 |
| 20260504014014 | 10 | 284 | 0.0 | 0.0 | 0.00 | 0.00 | 0.00 | 53 | 1016.6 |
| 20260504013512 | 10 | 284 | 0.0 | 0.0 | 0.00 | 0.00 | 0.00 | 53 | 1016.5 |
| 20260504013009 | 11 | 284 | 0.0 | 1.6 | 0.00 | 0.00 | 0.00 | 52 | 1016.3 |
| 20260504012506 | 11 | 284 | 0.0 | 0.0 | 0.00 | 0.00 | 0.00 | 53 | 1016.3 |
| 20260504012004 | 11 | 284 | 0.0 | 0.0 | 0.00 | 0.00 | 0.00 | 51 | 1016.1 |
| 20260504011500 | 11 | 284 | 0.0 | 0.0 | 0.00 | 0.00 | 0.00 | 50 | 1016.4 |
| 20260504010955 | 11 | 284 | 0.0 | 0.0 | 0.00 | 0.00 | 0.00 | 50 | 1016.3 |
| 20260504010452 | 11 | 284 | 0.0 | 0.0 | 0.00 | 0.00 | 0.00 | 50 | 1016.4 |
| 20260504005948 | 11 | 284 | 0.0 | 0.0 | 0.00 | 0.00 | 0.00 | 49 | 1016.4 |
| 20260504005445 | 11 | 284 | 0.0 | 0.0 | 0.00 | 0.00 | 0.00 | 49 | 1016.4 |
| 20260504004942 | 11 | 284 | 0.0 | 0.0 | 0.00 | 0.00 | 0.00 | 46 | 1016.3 |
| 20260504004440 | 11 | 284 | 0.0 | 0.0 | 0.00 | 0.00 | 0.00 | 46 | 1016.3 |
| 20260504003937 | 11 | 284 | 0.0 | 0.0 | 0.00 | 0.00 | 0.00 | 45 | 1016.1 |
| 20260504003433 | 11 | 284 | 0.0 | 0.0 | 0.00 | 0.00 | 0.00 | 45 | 1015.8 |
| 20260504002930 | 11 | 284 | 0.0 | 0.0 | 0.00 | 0.00 | 0.00 | 45 | 1016.1 |
| 20260504002427 | 11 | 284 | 0.0 | 0.0 | 0.00 | 0.00 | 0.00 | 47 | 1016.0 |
| 20260504001924 | 11 | 284 | 0.0 | 0.0 | 0.00 | 0.00 | 0.00 | 45 | 1016.0 |
| 20260504001422 | 12 | 284 | 0.0 | 0.0 | 0.00 | 0.00 | 0.00 | 44 | 1016.0 |
| 20260504000918 | 12 | 284 | 0.0 | 0.0 | 0.00 | 0.00 | 0.00 | 44 | 1016.1 |
| 20260504000416 | 12 | 284 | 0.0 | 0.0 | 0.00 | 0.00 | 0.00 | 44 | 1015.9 |
| 20260503235912 | 12 | 284 | 0.0 | 1.6 | 0.00 | 0.00 | 0.00 | 43 | 1016.1 |
| 20260503235410 | 12 | 284 | 0.0 | 3.2 | 0.00 | 0.00 | 0.00 | 41 | 1016.0 |
| 20260503234908 | 12 | 284 | 1.6 | 1.6 | 0.00 | 0.00 | 0.00 | 41 | 1016.4 |
| 20260503234405 | 13 | 284 | 1.6 | 3.2 | 0.00 | 0.00 | 0.00 | 40 | 1016.1 |
| 20260503233903 | 13 | 284 | 0.0 | 3.2 | 0.00 | 0.00 | 0.00 | 40 | 1016.4 |
| 20260503233359 | 13 | 284 | 1.6 | 3.2 | 0.00 | 0.00 | 0.00 | 40 | 1016.0 |
| 20260503232855 | 13 | 284 | 1.6 | 3.2 | 0.00 | 0.00 | 0.00 | 41 | 1016.4 |
| 20260503232353 | 13 | 285 | 1.6 | 3.2 | 0.00 | 0.00 | 0.00 | 42 | 1016.3 |
| 20260503231850 | 13 | 284 | 0.0 | 3.2 | 0.00 | 0.00 | 0.00 | 40 | 1016.3 |
| 20260503231347 | 13 | 284 | 1.6 | 4.8 | 0.00 | 0.00 | 0.00 | 39 | 1016.5 |
| 20260503230843 | 13 | 286 | 3.2 | 3.2 | 0.00 | 0.00 | 0.00 | 38 | 1016.6 |
| 20260503230340 | 13 | 264 | 1.6 | 3.2 | 0.00 | 0.00 | 0.00 | 40 | 1016.4 |
| 20260503225838 | 13 | 277 | 1.6 | 3.2 | 0.00 | 0.00 | 0.00 | 40 | 1016.4 |
| 20260503225333 | 13 | 277 | 1.6 | 4.8 | 0.00 | 0.00 | 0.00 | 37 | 1016.4 |
| 20260503224830 | 13 | 277 | 1.6 | 6.4 | 0.00 | 0.00 | 0.00 | 37 | 1016.5 |
| 20260503224327 | 14 | 269 | 11.3 | 14.5 | 0.00 | 0.00 | 0.00 | 36 | 1016.5 |
| 20260503223825 | 14 | 283 | 4.8 | 6.4 | 0.00 | 0.00 | 0.00 | 37 | 1016.5 |
| 20260503223323 | 14 | 259 | 1.6 | 4.8 | 0.00 | 0.00 | 0.00 | 36 | 1016.5 |
| 20260503222818 | 14 | 262 | 4.8 | 6.4 | 0.00 | 0.00 | 0.00 | 39 | 1016.6 |
| 20260503222317 | 14 | 275 | 3.2 | 6.4 | 0.00 | 0.00 | 0.00 | 37 | 1016.5 |
| 20260503221814 | 14 | 260 | 6.4 | 11.3 | 0.00 | 0.00 | 0.00 | 36 | 1016.5 |
| 20260503221313 | 14 | 255 | 4.8 | 9.7 | 0.00 | 0.00 | 0.00 | 38 | 1016.8 |
| 20260503220808 | 14 | 121 | 3.2 | 9.7 | 0.00 | 0.00 | 0.00 | 34 | 1016.4 |
| 20260503220306 | 14 | 234 | 6.4 | 9.7 | 0.00 | 0.00 | 0.00 | 35 | 1016.7 |
| 20260503215802 | 14 | 229 | 8.0 | 11.3 | 0.00 | 0.00 | 0.00 | 36 | 1016.7 |
| 20260503215259 | 14 | 209 | 6.4 | 14.5 | 0.00 | 0.00 | 0.00 | 34 | 1016.6 |
| 20260503214757 | 15 | 236 | 4.8 | 12.9 | 0.00 | 0.00 | 0.00 | 35 | 1016.6 |
| 20260503214254 | 15 | 258 | 6.4 | 11.3 | 0.00 | 0.00 | 0.00 | 36 | 1016.6 |
| 20260503213752 | 15 | 244 | 1.6 | 4.8 | 0.00 | 0.00 | 0.00 | 33 | 1016.6 |
| 20260503213249 | 15 | 237 | 1.6 | 9.7 | 0.00 | 0.00 | 0.00 | 35 | 1016.6 |
| 20260503212746 | 16 | 243 | 3.2 | 9.7 | 0.00 | 0.00 | 0.00 | 35 | 1016.5 |
| 20260503212243 | 16 | 222 | 3.2 | 3.2 | 0.00 | 0.00 | 0.00 | 31 | 1016.4 |
| 20260503211741 | 15 | 222 | 3.2 | 6.4 | 0.00 | 0.00 | 0.00 | 32 | 1016.5 |
| 20260503211237 | 15 | 259 | 4.8 | 11.3 | 0.00 | 0.00 | 0.00 | 37 | 1016.6 |
| 20260503210732 | 15 | 212 | 6.4 | 14.5 | 0.00 | 0.00 | 0.00 | 37 | 1016.7 |
| 20260503210230 | 15 | 268 | 9.7 | 16.1 | 0.00 | 0.00 | 0.00 | 36 | 1016.6 |
| 20260503205725 | 15 | 182 | 9.7 | 14.5 | 0.00 | 0.00 | 0.00 | 35 | 1016.5 |
| 20260503205222 | 15 | 162 | 8.0 | 17.7 | 0.00 | 0.00 | 0.00 | 34 | 1016.7 |
| 20260503204718 | 15 | 214 | 3.2 | 12.9 | 0.00 | 0.00 | 0.00 | 33 | 1016.5 |
| 20260503204216 | 15 | 203 | 1.6 | 3.2 | 0.00 | 0.00 | 0.00 | 34 | 1016.8 |
| 20260503203713 | 15 | 225 | 3.2 | 6.4 | 0.00 | 0.00 | 0.00 | 36 | 1017.1 |
| 20260503203211 | 15 | 236 | 6.4 | 12.9 | 0.00 | 0.00 | 0.00 | 35 | 1017.0 |
| 20260503202708 | 15 | 239 | 6.4 | 17.7 | 0.00 | 0.00 | 0.00 | 37 | 1017.1 |
| 20260503202206 | 15 | 222 | 6.4 | 17.7 | 0.00 | 0.00 | 0.00 | 37 | 1017.3 |
| 20260503201703 | 14 | 234 | 8.0 | 9.7 | 0.00 | 0.00 | 0.00 | 39 | 1017.2 |
| 20260503201200 | 15 | 288 | 11.3 | 17.7 | 0.00 | 0.00 | 0.00 | 36 | 1017.5 |
| 20260503200656 | 15 | 250 | 3.2 | 9.7 | 0.00 | 0.00 | 0.00 | 35 | 1017.3 |
| 20260503200153 | 15 | 209 | 3.2 | 11.3 | 0.00 | 0.00 | 0.00 | 38 | 1017.2 |
| 20260503195650 | 15 | 249 | 1.6 | 9.7 | 0.00 | 0.00 | 0.00 | 34 | 1017.5 |
| 20260503195147 | 15 | 227 | 4.8 | 11.3 | 0.00 | 0.00 | 0.00 | 38 | 1017.8 |
| 20260503194644 | 15 | 239 | 9.7 | 16.1 | 0.00 | 0.00 | 0.00 | 38 | 1017.8 |
| 20260503194139 | 15 | 273 | 3.2 | 11.3 | 0.00 | 0.00 | 0.00 | 36 | 1017.7 |
| 20260503193637 | 15 | 263 | 4.8 | 6.4 | 0.00 | 0.00 | 0.00 | 35 | 1017.8 |
| 20260503193132 | 15 | 228 | 3.2 | 6.4 | 0.00 | 0.00 | 0.00 | 40 | 1018.2 |
| 20260503192628 | 14 | 259 | 3.2 | 6.4 | 0.00 | 0.00 | 0.00 | 35 | 1018.2 |
| 20260503192124 | 13 | 263 | 3.2 | 4.8 | 0.00 | 0.00 | 0.00 | 38 | 1018.3 |
| 20260503191621 | 13 | 269 | 4.8 | 16.1 | 0.00 | 0.00 | 0.00 | 36 | 1018.3 |
| 20260503191118 | 14 | 273 | 8.0 | 14.5 | 0.00 | 0.00 | 0.00 | 39 | 1018.4 |
| 20260503190615 | 14 | 261 | 9.7 | 12.9 | 0.00 | 0.00 | 0.00 | 36 | 1018.3 |
| 20260503190112 | 14 | 277 | 1.6 | 11.3 | 0.00 | 0.00 | 0.00 | 37 | 1018.3 |
| 20260503185608 | 15 | 227 | 1.6 | 4.8 | 0.00 | 0.00 | 0.00 | 35 | 1018.6 |
| 20260503185108 | 13 | 232 | 4.8 | 9.7 | 0.00 | 0.00 | 0.00 | 40 | 1018.5 |
| 20260503184604 | 13 | 269 | 3.2 | 6.4 | 0.00 | 0.00 | 0.00 | 40 | 1018.6 |
| 20260503184100 | 13 | 217 | 3.2 | 4.8 | 0.00 | 0.00 | 0.00 | 38 | 1018.7 |
| 20260503183557 | 15 | 262 | 3.2 | 9.7 | 0.00 | 0.00 | 0.00 | 37 | 1018.8 |
| 20260503183054 | 15 | 309 | 1.6 | 6.4 | 0.00 | 0.00 | 0.00 | 38 | 1018.7 |
| 20260503182553 | 13 | 271 | 4.8 | 9.7 | 0.00 | 0.00 | 0.00 | 42 | 1018.9 |
| 20260503182050 | 13 | 204 | 3.2 | 6.4 | 0.00 | 0.00 | 0.00 | 38 | 1018.8 |
| 20260503181547 | 13 | 204 | 1.6 | 4.8 | 0.00 | 0.00 | 0.00 | 36 | 1018.7 |
| 20260503181044 | 13 | 243 | 6.4 | 6.4 | 0.00 | 0.00 | 0.00 | 42 | 1018.8 |
| 20260503180541 | 13 | 262 | 3.2 | 6.4 | 0.00 | 0.00 | 0.00 | 39 | 1019.1 |
| 20260503180038 | 12 | 258 | 4.8 | 9.7 | 0.00 | 0.00 | 0.00 | 40 | 1019.4 |
| 20260503175535 | 13 | 83 | 4.8 | 12.9 | 0.00 | 0.00 | 0.00 | 35 | 1018.9 |
| 20260503175032 | 13 | 170 | 6.4 | 11.3 | 0.00 | 0.00 | 0.00 | 35 | 1019.4 |
| 20260503174530 | 13 | 286 | 11.3 | 14.5 | 0.00 | 0.00 | 0.00 | 39 | 1019.1 |
| 20260503174026 | 13 | 259 | 8.0 | 9.7 | 0.00 | 0.00 | 0.00 | 42 | 1019.1 |
| 20260503173521 | 13 | 246 | 6.4 | 14.5 | 0.00 | 0.00 | 0.00 | 39 | 1019.4 |
| 20260503173017 | 12 | 166 | 12.9 | 20.9 | 0.00 | 0.00 | 0.00 | 38 | 1019.4 |
| 20260503172515 | 12 | 189 | 8.0 | 11.3 | 0.00 | 0.00 | 0.00 | 41 | 1019.6 |
| 20260503172012 | 12 | 204 | 6.4 | 12.9 | 0.00 | 0.00 | 0.00 | 40 | 1019.7 |
| 20260503171508 | 11 | 312 | 11.3 | 14.5 | 0.00 | 0.00 | 0.00 | 43 | 1019.6 |
| 20260503171006 | 12 | 280 | 12.9 | 17.7 | 0.00 | 0.00 | 0.00 | 42 | 1019.8 |
| 20260503170502 | 12 | 285 | 6.4 | 9.7 | 0.00 | 0.00 | 0.00 | 42 | 1019.9 |
| 20260503150854 | 10 | 169 | 4.8 | 6.4 | 0.00 | 0.00 | 0.00 | 51 | 1021.1 |
| 20260503150350 | 10 | 258 | 3.2 | 11.3 | 0.00 | 0.00 | 0.00 | 51 | 1021.0 |
| 20260503140315 | 8 | 227 | 4.8 | 6.4 | 0.00 | 0.00 | 0.00 | 63 | 1021.4 |
| 20260503131244 | 6 | 197 | 6.4 | 11.3 | 0.00 | 0.00 | 0.00 | 78 | 1021.0 |
| 20260503130742 | 5 | 175 | 6.4 | 9.7 | 0.00 | 0.00 | 0.00 | 78 | 1021.0 |
| 20260503130239 | 5 | 216 | 4.8 | 9.7 | 0.00 | 0.00 | 0.00 | 79 | 1021.1 |
| 20260503120205 | 2 | 292 | 1.6 | 3.2 | 0.00 | 0.00 | 0.00 | 97 | 1020.6 |
| 20260503110632 | 0 | 293 | 1.6 | 1.6 | 0.00 | 0.00 | 0.00 | 98 | 1019.9 |
| 20260503110130 | 0 | 293 | 0.0 | 1.6 | 0.00 | 0.00 | 0.00 | 98 | 1020.1 |
| 20260503081446 | 0 | 292 | 0.0 | 0.0 | 0.00 | 0.00 | 0.00 | 95 | 1018.8 |
| 20260503080943 | 0 | 292 | 0.0 | 0.0 | 0.00 | 0.00 | 0.00 | 95 | 1018.8 |
| 20260503080439 | 0 | 292 | 0.0 | 0.0 | 0.00 | 0.00 | 0.00 | 95 | 1018.7 |
| 20260503072915 | 0 | 292 | 0.0 | 0.0 | 0.00 | 0.00 | 0.00 | 94 | 1018.3 |
| 20260503072413 | 0 | 292 | 0.0 | 0.0 | 0.00 | 0.00 | 0.00 | 94 | 1018.3 |
| 20260503071909 | 0 | 292 | 0.0 | 0.0 | 0.00 | 0.00 | 0.00 | 94 | 1018.4 |
| 20260503071407 | 0 | 292 | 0.0 | 0.0 | 0.00 | 0.00 | 0.00 | 93 | 1018.4 |
| 20260503070902 | 0 | 292 | 0.0 | 0.0 | 0.00 | 0.00 | 0.00 | 93 | 1018.2 |
| 20260503070400 | 0 | 292 | 1.6 | 1.6 | 0.00 | 0.00 | 0.00 | 93 | 1017.9 |
| 20260503060326 | 1 | 292 | 0.0 | 0.0 | 0.00 | 0.00 | 0.00 | 88 | 1018.1 |
| 20260503054814 | 2 | 292 | 0.0 | 0.0 | 0.00 | 0.00 | 0.00 | 85 | 1018.2 |
| 20260503054309 | 2 | 292 | 0.0 | 0.0 | 0.00 | 0.00 | 0.00 | 83 | 1018.2 |
| 20260503053808 | 2 | 292 | 0.0 | 1.6 | 0.00 | 0.00 | 0.00 | 82 | 1018.2 |
| 20260503053306 | 3 | 292 | 1.6 | 3.2 | 0.00 | 0.00 | 0.00 | 80 | 1018.0 |
| 20260503052802 | 3 | 292 | 0.0 | 3.2 | 0.00 | 0.00 | 0.00 | 79 | 1018.3 |
| 20260503052259 | 3 | 292 | 0.0 | 1.6 | 0.00 | 0.00 | 0.00 | 80 | 1018.0 |
| 20260503051754 | 2 | 292 | 1.6 | 1.6 | 0.00 | 0.00 | 0.00 | 81 | 1018.2 |
| 20260503051252 | 3 | 292 | 1.6 | 3.2 | 0.00 | 0.00 | 0.00 | 80 | 1018.1 |
| 20260503050748 | 3 | 292 | 0.0 | 1.6 | 0.00 | 0.00 | 0.00 | 80 | 1018.0 |
| 20260503050244 | 3 | 292 | 0.0 | 1.6 | 0.00 | 0.00 | 0.00 | 79 | 1018.2 |
| 20260503045742 | 3 | 292 | 0.0 | 0.0 | 0.00 | 0.00 | 0.00 | 79 | 1018.0 |
| 20260503045234 | 3 | 292 | 0.0 | 0.0 | 0.00 | 0.00 | 0.00 | 78 | 1018.1 |
| 20260503044729 | 3 | 292 | 0.0 | 3.2 | 0.00 | 0.00 | 0.00 | 77 | 1018.0 |
| 20260503044227 | 3 | 292 | 1.6 | 3.2 | 0.00 | 0.00 | 0.00 | 75 | 1017.9 |
| 20260503043724 | 3 | 292 | 0.0 | 3.2 | 0.00 | 0.00 | 0.00 | 75 | 1018.1 |
| 20260503043221 | 3 | 287 | 0.0 | 1.6 | 0.00 | 0.00 | 0.00 | 74 | 1018.0 |
| 20260503042717 | 4 | 287 | 1.6 | 3.2 | 0.00 | 0.00 | 0.00 | 74 | 1018.0 |
| 20260503042214 | 4 | 294 | 1.6 | 6.4 | 0.00 | 0.00 | 0.00 | 72 | 1018.0 |
| 20260503041710 | 4 | 295 | 0.0 | 1.6 | 0.00 | 0.00 | 0.00 | 72 | 1018.0 |
| 20260503041208 | 4 | 294 | 1.6 | 4.8 | 0.00 | 0.00 | 0.00 | 72 | 1017.8 |
| 20260503040705 | 4 | 350 | 0.0 | 1.6 | 0.00 | 0.00 | 0.00 | 71 | 1018.0 |
| 20260503040202 | 4 | 349 | 0.0 | 1.6 | 0.00 | 0.00 | 0.00 | 71 | 1017.9 |
| 20260503035659 | 5 | 350 | 3.2 | 3.2 | 0.00 | 0.00 | 0.00 | 71 | 1018.1 |
| 20260503035157 | 5 | 335 | 0.0 | 1.6 | 0.00 | 0.00 | 0.00 | 70 | 1018.0 |
| 20260503034654 | 5 | 321 | 0.0 | 1.6 | 0.00 | 0.00 | 0.00 | 70 | 1017.9 |
| 20260503034151 | 5 | 321 | 3.2 | 9.7 | 0.00 | 0.00 | 0.00 | 69 | 1017.9 |
| 20260503033648 | 5 | 331 | 6.4 | 9.7 | 0.00 | 0.00 | 0.00 | 69 | 1017.8 |